Bloomington, IL (61705)

11:26 PM CST on November 23, 2014 (GMT -0600)
Vap0rz Garage | Change Station
CLOSE
Current Station
Personal Weather Station
Location: Bloomington, IL
Elevation: 853 ft
Nearby Weather Stations

Elev 853 ft 40.49 °N, 88.96 °W | Updated 11 minutes ago

Light Rain
Light Rain Fog
48.9 °F
Feels Like 44 °F
N
12.0
Wind Variable Wind from SW
Gusts 12.0 mph

Today
High -- | Low -- °F
--% Chance of Precip.
Yesterday
High -- | Low -- °F
Precip. -- in
6:51 AM 4:32 PM
Waxing Crescent, 4% visible
Pressure 29.18 in
Visibility 0.2 miles
Clouds Overcast 100 ft
Windchill 44 °F
Dew Point 49 °F
Humidity 100%
Rainfall 0.69 in
Snow Depth Not available.
UV 0 out of 12
Pollen .10 out of 12
Air Quality Not available.
Flu Activity Not available.
METAR KBMI 240456Z AUTO 23010KT 1/4SM R29/2000V2600FT -RA FG OVC001 09/09 A2917 RMK AO2 T00940094 P0000 SLP881

More Conditions Fewer Conditions

Pressure 29.18 in
Visibility 0.2 miles
Clouds Overcast 100 ft
Windchill 44 °F
Dew Point 49 °F
Humidity 100%
Rainfall 0.69 in
Snow Depth Not available.
UV 0 out of 12
Pollen .10 out of 12
Air Quality Not available.
Flu Activity Not available.
METAR KBMI 240456Z AUTO 23010KT 1/4SM R29/2000V2600FT -RA FG OVC001 09/09 A2917 RMK AO2 T00940094 P0000 SLP881

More Conditions Fewer Conditions

10-Day Weather Forecast

Almanac

Astronomy

Nov. 23, 2014 Rise Set
Actual Time
Civil Twilight
Nautical Twilight
Astronomical Twilight
Moon
Length of Visible Light
Length of Day
Tomorrow will be .
, % of the Moon is Illuminated

Today's Extremes

State Highs State Lows

Community

WunderPhotos

Upload Photos

1,773,269 photos uploaded!

WunderBlogs® & News

Nearby

Air Quality

  Air Quality AQ Index Pollutant
Not available.

Snow Depth

Station Depth Elevation

Earthquake Activity

City Distance Mag. Time & Date
Minimum magnitude displayed is 2.5.

Coastal Water Temperatures

Place Temperature

Nearby Weather Stations